createdAt,value
2019-05-28T00:00:53.689Z,13.50
2019-05-28T00:03:24.121Z,13.48
2019-05-28T00:05:54.316Z,13.50
2019-05-28T00:08:24.645Z,13.54
2019-05-28T00:10:54.941Z,13.54
2019-05-28T00:13:25.103Z,13.61
2019-05-28T00:15:55.316Z,13.58
2019-05-28T00:18:26.339Z,13.58
2019-05-28T00:21:02.412Z,13.59
2019-05-28T00:23:32.598Z,13.69
2019-05-28T00:26:58.164Z,13.62
2019-05-28T00:29:28.391Z,13.68
2019-05-28T00:31:58.975Z,13.65
2019-05-28T00:34:29.134Z,13.68
2019-05-28T00:36:59.330Z,13.67
2019-05-28T00:39:29.500Z,13.66
2019-05-28T00:41:59.693Z,13.67
2019-05-28T00:44:29.966Z,13.65
2019-05-28T00:47:00.313Z,13.65
2019-05-28T00:49:30.533Z,13.62
2019-05-28T00:52:00.836Z,13.63
2019-05-28T00:54:31.125Z,13.59
2019-05-28T00:57:01.882Z,13.58
2019-05-28T00:59:33.309Z,13.58
2019-05-28T01:02:03.939Z,13.53
2019-05-28T01:04:34.128Z,13.51
2019-05-28T01:07:04.320Z,13.53
2019-05-28T01:09:34.563Z,13.53
2019-05-28T01:12:05.034Z,13.55
2019-05-28T01:14:35.192Z,13.62
2019-05-28T01:17:05.421Z,13.66
2019-05-28T01:19:35.680Z,13.64
2019-05-28T01:22:05.853Z,13.64
2019-05-28T01:24:36.056Z,13.63
2019-05-28T01:27:06.214Z,13.63
2019-05-28T01:29:36.395Z,13.63
2019-05-28T01:32:06.600Z,13.62
2019-05-28T01:34:36.799Z,13.65
2019-05-28T01:37:06.992Z,13.65
2019-05-28T01:39:37.215Z,13.63
2019-05-28T01:42:07.381Z,13.61
2019-05-28T01:44:37.667Z,13.61
2019-05-28T01:47:07.932Z,13.63
2019-05-28T01:49:38.172Z,13.64
2019-05-28T01:52:08.334Z,13.64
2019-05-28T01:54:38.559Z,13.68
2019-05-28T01:57:08.745Z,13.67
2019-05-28T01:59:39.956Z,13.70
2019-05-28T02:02:10.553Z,13.71
2019-05-28T02:04:40.828Z,13.71
2019-05-28T02:07:11.018Z,13.71
2019-05-28T02:09:45.108Z,13.72
2019-05-28T02:12:15.539Z,13.73
2019-05-28T02:14:48.234Z,13.68
2019-05-28T02:17:18.508Z,13.62
2019-05-28T02:19:48.749Z,13.56
2019-05-28T02:22:19.027Z,13.52
2019-05-28T02:24:49.313Z,13.45
2019-05-28T02:27:19.637Z,13.39
2019-05-28T02:29:49.883Z,13.32
2019-05-28T02:32:22.275Z,13.27
2019-05-28T02:34:52.676Z,13.18
2019-05-28T02:37:54.743Z,13.05
2019-05-28T02:40:25.411Z,13.01
2019-05-28T02:42:56.006Z,12.93
2019-05-28T02:45:26.522Z,12.82
2019-05-28T02:47:57.146Z,12.83
2019-05-28T02:51:06.765Z,12.77
2019-05-28T02:53:37.233Z,12.72
2019-05-28T02:56:07.635Z,12.62
2019-05-28T02:58:38.398Z,12.49
2019-05-28T03:01:44.147Z,12.47
2019-05-28T03:04:11.349Z,12.30
2019-05-28T03:06:44.569Z,12.27
2019-05-28T03:09:17.496Z,12.24
2019-05-28T03:11:47.778Z,12.19
2019-05-28T03:14:18.315Z,12.16
2019-05-28T03:16:51.726Z,12.28
2019-05-28T03:22:01.545Z,12.16
2019-05-28T03:25:28.120Z,12.16
2019-05-28T03:27:59.258Z,12.15
2019-05-28T03:30:30.049Z,12.15
2019-05-28T03:33:19.638Z,12.17
2019-05-28T03:35:53.340Z,12.28
2019-05-28T03:38:26.680Z,12.30
2019-05-28T03:40:58.237Z,12.32
2019-05-28T03:43:29.890Z,12.39
2019-05-28T03:46:02.498Z,12.45
2019-05-28T03:49:23.073Z,12.43
2019-05-28T03:51:53.938Z,12.37
2019-05-28T03:54:24.332Z,12.33
2019-05-28T03:56:54.787Z,12.34
2019-05-28T04:02:44.491Z,12.36
2019-05-28T04:05:16.574Z,12.25
2019-05-28T04:08:08.350Z,12.30
2019-05-28T04:10:45.742Z,12.29
2019-05-28T04:14:00.156Z,12.26
2019-05-28T04:19:50.316Z,12.20
2019-05-28T04:22:27.819Z,12.14
2019-05-28T04:24:58.215Z,12.05
2019-05-28T04:27:30.173Z,12.02
2019-05-28T04:30:10.914Z,12.01
2019-05-28T04:32:43.090Z,11.97
2019-05-28T04:35:47.334Z,11.99
2019-05-28T04:38:43.092Z,12.00
2019-05-28T04:41:14.124Z,12.01
2019-05-28T04:43:46.864Z,12.02
2019-05-28T04:48:54.503Z,11.88
2019-05-28T04:51:26.455Z,11.87
2019-05-28T04:54:14.438Z,11.86
2019-05-28T04:57:58.276Z,11.77
2019-05-28T05:00:58.120Z,11.81
2019-05-28T05:03:42.260Z,11.62
2019-05-28T05:06:55.309Z,11.64
2019-05-28T05:09:51.783Z,11.60
2019-05-28T05:12:27.513Z,11.61
2019-05-28T05:15:29.721Z,11.63
2019-05-28T05:18:09.720Z,11.63
2019-05-28T05:20:48.237Z,11.64
2019-05-28T05:23:18.627Z,11.66
2019-05-28T05:25:49.009Z,11.68
2019-05-28T05:28:19.329Z,11.78
2019-05-28T05:30:49.618Z,11.72
2019-05-28T05:33:20.913Z,11.71
2019-05-28T05:36:10.878Z,11.72
2019-05-28T05:38:41.761Z,11.68
2019-05-28T05:41:13.210Z,11.76
2019-05-28T05:43:43.676Z,11.81
2019-05-28T05:46:14.254Z,11.90
2019-05-28T05:48:45.588Z,11.95
2019-05-28T05:51:16.031Z,12.00
2019-05-28T05:54:18.475Z,12.04
2019-05-28T05:57:03.166Z,12.11
2019-05-28T06:02:56.645Z,12.18
2019-05-28T06:05:31.429Z,12.19
2019-05-28T06:08:41.571Z,12.16
2019-05-28T06:11:41.070Z,12.18
2019-05-28T06:14:22.071Z,12.22
2019-05-28T06:16:53.709Z,12.17
2019-05-28T06:19:24.649Z,12.14
2019-05-28T06:21:55.325Z,12.18
2019-05-28T06:24:26.454Z,12.10
2019-05-28T06:26:57.203Z,12.11
2019-05-28T06:29:27.779Z,12.11
2019-05-28T06:31:58.435Z,12.13
2019-05-28T06:34:31.593Z,12.16
2019-05-28T06:37:02.194Z,12.23
2019-05-28T06:39:35.246Z,12.29
2019-05-28T06:42:06.096Z,12.24
2019-05-28T06:44:37.237Z,12.22
2019-05-28T06:47:10.523Z,12.18
2019-05-28T06:49:44.472Z,12.12
2019-05-28T06:52:17.426Z,12.09
2019-05-28T06:54:54.094Z,12.09
2019-05-28T06:57:23.534Z,12.12
2019-05-28T06:59:58.400Z,12.14
2019-05-28T07:02:28.702Z,12.13
2019-05-28T07:04:59.177Z,12.20
2019-05-28T07:08:16.914Z,12.24
2019-05-28T07:11:37.510Z,12.27
2019-05-28T07:14:07.987Z,12.33
2019-05-28T07:16:52.178Z,12.43
2019-05-28T07:19:23.921Z,12.44
2019-05-28T07:24:37.872Z,12.64
2019-05-28T07:27:11.392Z,12.71
2019-05-28T07:29:46.140Z,12.72
2019-05-28T07:32:16.869Z,12.73
2019-05-28T07:35:44.758Z,12.74
2019-05-28T07:38:03.828Z,12.67
2019-05-28T07:40:35.119Z,12.59
2019-05-28T07:43:05.574Z,12.58
2019-05-28T07:45:38.476Z,12.57
2019-05-28T07:48:10.817Z,12.60
2019-05-28T07:50:41.780Z,12.62
2019-05-28T07:53:13.291Z,12.69
2019-05-28T07:56:31.023Z,12.78
2019-05-28T07:59:35.184Z,12.92
2019-05-28T08:02:08.025Z,13.02
2019-05-28T08:04:47.081Z,13.16
2019-05-28T08:07:11.232Z,13.22
2019-05-28T08:09:42.174Z,13.20
2019-05-28T08:12:12.784Z,13.26
2019-05-28T08:19:00.414Z,13.40
2019-05-28T08:21:32.496Z,13.63
2019-05-28T08:24:03.162Z,13.77
2019-05-28T08:26:33.740Z,13.86
2019-05-28T08:33:00.123Z,13.89
2019-05-28T08:35:30.410Z,14.03
2019-05-28T08:38:00.843Z,14.08
2019-05-28T08:40:31.478Z,14.18
2019-05-28T08:43:01.968Z,14.13
2019-05-28T08:45:32.705Z,14.11
2019-05-28T08:48:06.654Z,14.16
2019-05-28T08:50:37.898Z,14.17
2019-05-28T08:53:08.196Z,14.09
2019-05-28T08:55:38.539Z,14.08
2019-05-28T08:58:08.969Z,14.10
2019-05-28T09:00:41.156Z,14.28
2019-05-28T09:03:12.288Z,14.32
2019-05-28T09:05:43.029Z,14.30
2019-05-28T09:08:13.533Z,14.42
2019-05-28T09:10:43.913Z,14.53
2019-05-28T09:13:14.345Z,14.53
2019-05-28T09:16:11.837Z,14.59
2019-05-28T09:19:23.672Z,14.63
2019-05-28T09:21:57.544Z,14.64
2019-05-28T09:24:28.075Z,14.64
2019-05-28T09:26:58.825Z,14.61
2019-05-28T09:29:29.898Z,14.68
2019-05-28T09:32:29.868Z,14.59
2019-05-28T09:35:19.388Z,14.64
2019-05-28T09:37:49.775Z,14.81
2019-05-28T09:40:21.849Z,14.87
2019-05-28T09:42:52.282Z,14.96
2019-05-28T09:45:23.454Z,14.86
2019-05-28T09:47:55.326Z,14.86
2019-05-28T09:50:31.003Z,14.79
2019-05-28T09:53:09.089Z,14.87
2019-05-28T09:55:39.346Z,14.75
2019-05-28T09:58:10.223Z,14.94
2019-05-28T10:00:56.825Z,14.95
2019-05-28T10:03:12.799Z,15.16
2019-05-28T10:06:01.696Z,15.39
2019-05-28T10:08:18.122Z,15.30
2019-05-28T10:10:48.399Z,15.35
2019-05-28T10:13:36.790Z,15.47
2019-05-28T10:15:50.613Z,15.78
2019-05-28T10:18:21.221Z,15.96
2019-05-28T10:20:51.789Z,15.57
2019-05-28T10:23:25.844Z,15.55
2019-05-28T10:25:56.097Z,15.77
2019-05-28T10:28:26.445Z,16.00
2019-05-28T10:30:56.725Z,15.79
2019-05-28T10:33:27.022Z,15.94
2019-05-28T10:35:57.372Z,15.79
2019-05-28T10:38:31.944Z,15.97
2019-05-28T10:41:02.226Z,15.97
2019-05-28T10:43:55.910Z,16.10
2019-05-28T10:46:29.209Z,16.22
2019-05-28T10:48:59.485Z,16.41
2019-05-28T10:55:04.601Z,16.19
2019-05-28T10:57:35.003Z,16.37
2019-05-28T11:00:07.245Z,16.36
2019-05-28T11:02:37.509Z,16.35
2019-05-28T11:05:09.025Z,16.43
2019-05-28T11:07:39.305Z,16.40
2019-05-28T11:10:23.323Z,16.30
2019-05-28T11:12:43.516Z,16.66
2019-05-28T11:15:15.426Z,16.88
2019-05-28T11:17:45.708Z,16.83
2019-05-28T11:20:16.988Z,16.81
2019-05-28T11:22:47.183Z,17.14
2019-05-28T11:25:18.063Z,17.61
2019-05-28T11:27:49.484Z,17.83
2019-05-28T11:30:21.473Z,18.14
2019-05-28T11:32:51.885Z,18.42
2019-05-28T11:35:23.428Z,18.48
2019-05-28T11:37:53.659Z,17.90
2019-05-28T11:40:24.100Z,17.73
2019-05-28T11:42:54.367Z,17.56
2019-05-28T11:45:24.870Z,17.66
2019-05-28T11:47:55.142Z,17.37
2019-05-28T11:50:25.501Z,17.10
2019-05-28T11:52:56.219Z,17.22
2019-05-28T11:55:26.471Z,17.39
2019-05-28T11:57:56.880Z,17.48
2019-05-28T12:00:27.824Z,17.39
2019-05-28T12:02:58.506Z,17.56
2019-05-28T12:05:29.047Z,17.03
2019-05-28T12:08:00.438Z,16.89
2019-05-28T12:10:31.765Z,17.15
2019-05-28T12:13:02.982Z,17.41
2019-05-28T12:15:33.409Z,17.82
2019-05-28T12:18:49.375Z,17.76
2019-05-28T12:21:19.950Z,17.88
2019-05-28T12:23:50.653Z,18.01
2019-05-28T12:26:21.310Z,17.92
2019-05-28T12:28:51.624Z,18.14
2019-05-28T12:31:21.929Z,18.32
2019-05-28T12:33:52.174Z,18.46
2019-05-28T12:36:25.682Z,18.50
2019-05-28T12:38:56.015Z,18.40
2019-05-28T12:41:26.353Z,18.23
2019-05-28T12:44:04.323Z,18.08
2019-05-28T12:46:36.330Z,17.89
2019-05-28T12:49:06.973Z,17.94
2019-05-28T12:51:38.195Z,17.68
2019-05-28T12:54:08.460Z,17.61
2019-05-28T12:56:39.136Z,17.70
2019-05-28T12:59:09.970Z,18.22
2019-05-28T13:01:40.328Z,18.68
2019-05-28T13:04:10.758Z,19.73
2019-05-28T13:06:41.019Z,21.27
2019-05-28T13:09:11.336Z,21.85
2019-05-28T13:11:41.722Z,22.02
2019-05-28T13:14:12.457Z,22.21
2019-05-28T13:16:42.776Z,23.52
2019-05-28T13:19:13.200Z,24.64
2019-05-28T13:21:45.405Z,24.56
2019-05-28T13:24:18.136Z,22.68
2019-05-28T13:26:48.429Z,20.42
2019-05-28T13:29:18.665Z,21.83
2019-05-28T13:31:48.962Z,23.24
2019-05-28T13:34:19.216Z,24.06
2019-05-28T13:36:49.536Z,23.97
2019-05-28T13:39:19.820Z,25.24
2019-05-28T13:41:50.090Z,25.21
2019-05-28T13:44:20.296Z,25.57
2019-05-28T13:46:50.595Z,25.39
2019-05-28T13:49:20.780Z,24.79
2019-05-28T13:51:52.984Z,23.01
2019-05-28T13:54:23.810Z,22.54
2019-05-28T13:56:54.014Z,21.82
2019-05-28T13:59:24.620Z,23.20
2019-05-28T14:01:54.852Z,23.93
2019-05-28T14:04:25.219Z,23.96
2019-05-28T14:06:55.582Z,24.87
2019-05-28T14:09:26.146Z,25.40
2019-05-28T14:11:56.464Z,24.74
2019-05-28T14:14:26.703Z,25.22
2019-05-28T14:16:57.638Z,24.53
2019-05-28T14:19:27.978Z,24.07
2019-05-28T14:21:58.353Z,24.48
2019-05-28T14:24:28.792Z,24.25
2019-05-28T14:26:59.090Z,25.37
2019-05-28T14:29:30.272Z,22.24
2019-05-28T14:32:00.565Z,21.96
2019-05-28T14:34:30.850Z,22.65
2019-05-28T14:37:03.666Z,22.31
2019-05-28T14:39:40.905Z,23.18
2019-05-28T14:42:12.880Z,23.34
2019-05-28T14:44:48.088Z,23.43
2019-05-28T14:47:26.461Z,23.24
2019-05-28T14:49:59.619Z,23.00
2019-05-28T14:52:30.347Z,22.43
2019-05-28T14:55:01.118Z,21.45
2019-05-28T14:57:31.646Z,21.17
2019-05-28T15:00:09.958Z,21.38
2019-05-28T15:02:42.407Z,20.97
2019-05-28T15:05:13.012Z,20.38
2019-05-28T15:07:43.312Z,20.32
2019-05-28T15:10:14.490Z,20.43
2019-05-28T15:12:44.767Z,20.83
2019-05-28T15:15:34.003Z,20.95
2019-05-28T15:17:50.212Z,21.13
2019-05-28T15:20:21.969Z,21.07
2019-05-28T15:22:52.312Z,20.93
2019-05-28T15:25:22.782Z,20.78
2019-05-28T15:27:53.132Z,20.92
2019-05-28T15:30:24.044Z,21.00
2019-05-28T15:32:54.340Z,20.41
2019-05-28T15:35:28.250Z,19.76
2019-05-28T15:37:59.346Z,19.55
2019-05-28T15:41:18.912Z,19.65
2019-05-28T15:43:49.423Z,19.12
2019-05-28T15:46:19.822Z,18.61
2019-05-28T15:48:50.228Z,18.31
2019-05-28T15:51:20.520Z,18.19
2019-05-28T15:53:50.913Z,18.11
2019-05-28T15:56:21.514Z,18.20
2019-05-28T15:58:51.886Z,18.25
2019-05-28T16:01:22.264Z,18.34
2019-05-28T16:03:52.549Z,18.08
2019-05-28T16:06:23.130Z,17.83
2019-05-28T16:08:53.427Z,17.48
2019-05-28T16:11:23.657Z,17.56
2019-05-28T16:13:57.063Z,17.58
2019-05-28T16:16:27.619Z,17.67
2019-05-28T16:18:57.909Z,17.62
2019-05-28T16:21:31.537Z,17.64
2019-05-28T16:24:01.954Z,17.63
2019-05-28T16:26:32.590Z,17.60
2019-05-28T16:29:04.204Z,17.25
2019-05-28T16:31:34.798Z,17.19
2019-05-28T16:34:05.108Z,17.18
2019-05-28T16:36:35.548Z,17.30
2019-05-28T16:39:08.351Z,17.33
2019-05-28T16:41:38.791Z,17.35
2019-05-28T16:44:09.271Z,17.40
2019-05-28T16:46:44.867Z,17.49
2019-05-28T16:49:17.579Z,17.44
2019-05-28T16:51:48.110Z,17.24
2019-05-28T16:54:19.612Z,17.21
2019-05-28T16:56:51.936Z,17.16
2019-05-28T17:00:35.079Z,17.05
2019-05-28T17:03:06.178Z,16.96
2019-05-28T17:05:39.848Z,16.88
2019-05-28T17:08:10.150Z,16.98
2019-05-28T17:10:40.836Z,16.60
2019-05-28T17:13:11.363Z,16.66
2019-05-28T17:15:45.352Z,16.56
2019-05-28T17:18:15.571Z,16.59
2019-05-28T17:20:48.243Z,16.59
2019-05-28T17:23:18.695Z,16.63
2019-05-28T17:25:51.942Z,16.61
2019-05-28T17:28:22.192Z,16.68
2019-05-28T17:30:52.580Z,16.60
2019-05-28T17:33:22.837Z,16.52
2019-05-28T17:36:11.014Z,16.44
2019-05-28T17:38:41.768Z,16.41
2019-05-28T17:41:12.497Z,16.39
2019-05-28T17:43:42.887Z,16.38
2019-05-28T17:46:13.086Z,16.35
2019-05-28T17:48:43.712Z,16.30
2019-05-28T17:51:14.137Z,16.29
2019-05-28T17:53:44.761Z,16.27
2019-05-28T17:56:15.025Z,16.28
2019-05-28T17:58:45.557Z,16.20
2019-05-28T18:01:15.850Z,16.14
2019-05-28T18:03:46.125Z,16.30
2019-05-28T18:06:16.546Z,16.25
2019-05-28T18:08:48.447Z,16.19
2019-05-28T18:11:18.996Z,16.10
2019-05-28T18:13:54.313Z,16.02
2019-05-28T18:16:26.583Z,15.99
2019-05-28T18:19:00.371Z,16.00
2019-05-28T18:21:29.088Z,15.94
2019-05-28T18:23:59.395Z,15.88
2019-05-28T18:26:30.234Z,15.82
2019-05-28T18:29:05.294Z,15.76
2019-05-28T18:31:37.809Z,15.74
2019-05-28T18:34:11.969Z,15.72
2019-05-28T18:36:43.067Z,15.68
2019-05-28T18:39:14.011Z,15.59
2019-05-28T18:41:44.678Z,15.51
2019-05-28T18:44:15.564Z,15.46
2019-05-28T18:46:48.638Z,15.40
2019-05-28T18:49:18.912Z,15.33
2019-05-28T18:51:49.326Z,15.38
2019-05-28T18:54:22.600Z,15.16
2019-05-28T18:56:52.991Z,15.00
2019-05-28T18:59:54.278Z,14.84
2019-05-28T19:02:24.545Z,14.72
2019-05-28T19:04:54.954Z,14.50
2019-05-28T19:07:25.379Z,14.31
2019-05-28T19:09:55.643Z,14.12
2019-05-28T19:12:26.205Z,14.10
2019-05-28T19:15:02.569Z,14.07
2019-05-28T19:17:33.532Z,14.11
2019-05-28T19:20:03.729Z,14.13
2019-05-28T19:22:34.079Z,14.24
2019-05-28T19:25:04.557Z,14.15
2019-05-28T19:27:35.628Z,13.82
2019-05-28T19:30:08.175Z,13.67
2019-05-28T19:32:38.563Z,13.63
2019-05-28T19:35:10.057Z,13.70
2019-05-28T19:37:40.340Z,13.72
2019-05-28T19:40:10.909Z,13.74
2019-05-28T19:42:41.233Z,13.74
2019-05-28T19:45:26.280Z,13.61
2019-05-28T19:47:57.153Z,13.55
2019-05-28T19:50:28.338Z,13.48
2019-05-28T19:52:58.851Z,13.49
2019-05-28T19:55:29.412Z,13.49
2019-05-28T19:57:59.678Z,13.47
2019-05-28T20:00:30.049Z,13.26
2019-05-28T20:03:00.356Z,13.18
2019-05-28T20:05:30.779Z,13.08
2019-05-28T20:11:13.887Z,12.78
2019-05-28T20:13:44.193Z,12.70
2019-05-28T20:16:14.618Z,12.67
2019-05-28T20:18:45.308Z,12.73
2019-05-28T20:21:16.148Z,12.70
2019-05-28T20:23:46.373Z,12.65
2019-05-28T20:26:16.779Z,12.64
2019-05-28T20:31:21.671Z,12.63
2019-05-28T20:33:51.890Z,12.53
2019-05-28T20:36:22.393Z,12.45
2019-05-28T20:38:52.707Z,12.41
2019-05-28T20:41:23.140Z,12.38
2019-05-28T20:43:54.979Z,12.35
2019-05-28T20:46:25.426Z,12.36
2019-05-28T20:48:55.825Z,12.33
2019-05-28T20:51:26.118Z,12.30
2019-05-28T20:53:56.439Z,12.25
2019-05-28T20:56:27.213Z,12.27
2019-05-28T20:59:00.056Z,12.27
2019-05-28T21:01:29.382Z,12.25
2019-05-28T21:04:02.681Z,12.22
2019-05-28T21:06:32.895Z,12.18
2019-05-28T21:09:04.288Z,12.14
2019-05-28T21:11:34.591Z,12.07
2019-05-28T21:14:05.628Z,12.00
2019-05-28T21:16:35.879Z,11.94
2019-05-28T21:19:07.859Z,11.92
2019-05-28T21:21:38.527Z,11.90
2019-05-28T21:24:08.987Z,11.91
2019-05-28T21:26:39.481Z,11.92
2019-05-28T21:29:09.809Z,11.89
2019-05-28T21:31:40.472Z,11.88
2019-05-28T21:34:11.381Z,11.85
2019-05-28T21:36:42.486Z,11.83
2019-05-28T21:39:15.117Z,11.75
2019-05-28T21:41:45.696Z,11.74
2019-05-28T21:44:15.957Z,11.78
2019-05-28T21:46:46.814Z,11.79
2019-05-28T21:49:17.158Z,11.82
2019-05-28T21:51:47.496Z,11.83
2019-05-28T21:54:18.674Z,11.83
2019-05-28T21:56:49.042Z,11.81
2019-05-28T21:59:19.759Z,11.85
2019-05-28T22:01:50.371Z,11.84
2019-05-28T22:04:21.093Z,11.85
2019-05-28T22:06:51.360Z,11.81
2019-05-28T22:09:23.110Z,11.80
2019-05-28T22:11:53.727Z,11.79
2019-05-28T22:14:24.070Z,11.79
2019-05-28T22:16:54.366Z,11.74
2019-05-28T22:19:24.600Z,11.73
2019-05-28T22:21:54.841Z,11.69
2019-05-28T22:24:25.115Z,11.67
2019-05-28T22:26:56.312Z,11.64
2019-05-28T22:29:26.573Z,11.64
2019-05-28T22:31:56.905Z,11.63
2019-05-28T22:34:27.268Z,11.63
2019-05-28T22:36:58.388Z,11.64
2019-05-28T22:39:29.665Z,11.66
2019-05-28T22:41:59.961Z,11.66
2019-05-28T22:44:30.475Z,11.65
2019-05-28T22:47:01.208Z,11.65
2019-05-28T22:49:31.466Z,11.68
2019-05-28T22:52:01.859Z,11.63
2019-05-28T22:54:32.244Z,11.61
2019-05-28T22:57:12.108Z,11.55
2019-05-28T22:59:42.592Z,11.48
2019-05-28T23:04:46.503Z,11.37
2019-05-28T23:07:35.750Z,11.22
2019-05-28T23:10:07.732Z,11.16
2019-05-28T23:12:38.213Z,11.07
2019-05-28T23:15:10.502Z,10.98
2019-05-28T23:17:41.506Z,10.95
2019-05-28T23:20:13.803Z,10.89
2019-05-28T23:23:03.288Z,10.79
2019-05-28T23:25:52.545Z,10.74
2019-05-28T23:28:23.057Z,10.65
2019-05-28T23:31:12.382Z,10.54
2019-05-28T23:34:02.185Z,10.46
2019-05-28T23:36:51.480Z,10.42
2019-05-28T23:39:41.491Z,10.46
2019-05-28T23:42:30.770Z,10.43
2019-05-28T23:45:01.038Z,10.36
2019-05-28T23:47:40.861Z,10.37
2019-05-28T23:50:15.839Z,10.28
2019-05-28T23:53:02.451Z,10.16
2019-05-28T23:55:51.741Z,10.10
2019-05-28T23:58:21.959Z,10.10
